Popsquash, Vermont
Current Conditions -  °F | °C
As of 4:35 PM on Friday 24 Oct 2014 (Local Time) from KFSO Reporting Station
Overcast Overcast  
Wind Chill: 48°   Ceiling: 3600
Heat Index: 48°   Visibility: 10mi
Dew Point: 39°   Wind: 0mph
Humidity: 71%   Direction: NA
Pressure: 29.83"   Gusts: NA
Location:  44.9002°N, 73.1493°W
Report Text: KFSO 242035Z AUTO 00000KT 10SM OVC036 09/04 A2983 RMK AO2 T00910041
Loading
Personal Weather Stations






























Interactive Weather Map
Tropical Storm Tracking
New forecast layout! Learn more

10-Day Weather Forecast

Advertisements
Track Severe Weather on mobile